Accueil
METAR-TAF:

METAR-TAF

Aéroports :

Brive-la-Gaillarde, France

Aéroport de Brive-Vallée de la Dordogne

latitude: 45-02-28N, longitude: 001-28-59E, altitude: 311 m

Observation

Le bulletin a été fait il y a 27 minutes, à 21:00 UTC
Vent 3 kt de nord/nord-ouest
Température 3°C
Humidité 87%
Pression 1016 hPa
Visibilité 10 km ou plus
pas de nuages en-dessous de 1500 mètres et pas de cumulonimbus.

METAR: LFSL 262100Z AUTO 34003KT CAVOK 03/01 Q1016

Heure: 23:27 (21:27 UTC)

Prévision

Le bulletin a été fait il y a 7 heures et 27 minutes, à 14:00 UTC
Prévision valable du 26 à 15 UTC au 26 à 24 UTC
Vent 10 kt de nord/nord-ouest
Visibilité 10 km ou plus
Nuages fragmentés à une hauteur de 2000 ft
Probabilité 30% :
Temporairement
du 26 à 15 UTC au 26 à 18 UTC
Nuages fragmentés à une hauteur de 1500 ft, Cumulus congestus.
faibles averses de pluie

TAF: LFSL 261400Z 2615/2624 34010KT 9999 BKN020 PROB30 TEMPO 2615/2618 -SHRA BKN015TCU

Observations et prévisions météorologiques de plus de 4000 aéroports (messages METAR et TAF).

Les stations disponibles sont représentées par des disques jaunes et rouges sur la carte.

Passer la souris dessus pour voir le nom de la station.

Cliquer dessus pour voir les observations et prévisions météorologiques.

Pour changer de carte: cliquez sur les boutons verts avec une croix noire pour zoomer, sur le bouton vert avec un tiret pour effectuer un zoom arrière, ou sur les flèches vertes pour les cartes adjacentes.


METAR-TAF: